Darwen, United Kingdom
Current Conditions -  °F | °C
As of 3:50 AM on Sunday 26 Oct 2014 (Local Time) from EGGP Reporting Station
Broken Clouds Broken Clouds  
Wind Chill: 13°   Ceiling: 3500
Heat Index: 13°   Visibility: 6mi
Dew Point: 10°   Wind: 13mph
Humidity: 82%   Direction: 200°SSW
Pressure: 29.94"   Gusts: NA
Location:  53.7°N, 2.47°W
Report Text: EGGP 260250Z 20011KT 9999 FEW026 BKN035 13/10 Q1014
Loading
Personal Weather Stations






























Interactive Weather Map
Tropical Storm Tracking
New forecast layout! Learn more

10-Day Weather Forecast

Advertisements
Track Severe Weather on mobile